Latest Weather Observations for Roebourne Airport

IDW60801

Issued at 7:33 pm WST Friday 1 July 2016 (issued every 30 minutes, with the page automatically refreshed every 10 minutes)

About weather observations | Map of weather stations | Latest weather observations for WA | Other Formats
Station Details ID: 004090 Name: ROEBOURNE AERO Lat: -20.76 Lon: 117.16 Height: 10.7 m
Data from the previous 72 hours. | See also: Recent months at Roebourne Airport
Date/Time
WST
Temp
°C
App
Temp
°C
Dew
Point
°C
Rel
Hum
%
Delta-T
°C
Wind Press
QNH
hPa
Press
MSL
hPa
Rain since
9am
mm
Dir  Spd
km/h
Gust
km/h
Spd
kts
Gust
kts
01/07:30pm 22.8 20.5 14.6 60 4.8 ESE 20 26 11 14 1016.6 1016.5 0.0
01/07:00pm 22.9 20.2 14.5 59 4.9 ESE 22 28 12 15 1016.3 1016.2 0.0
01/06:30pm 22.9 20.5 14.5 59 5.0 ESE 20 28 11 15 1016.1 1016.0 0.0
01/06:00pm 22.9 20.6 14.7 60 4.8 SE 20 28 11 15 1015.6 1015.5 0.0
01/05:30pm 23.1 20.1 14.7 59 5.0 SE 24 32 13 17 1015.5 1015.4 0.0
01/05:00pm 23.1 20.2 15.2 61 4.7 SE 24 28 13 15 1015.5 1015.4 0.0
01/04:30pm 23.0 21.1 15.8 64 4.3 ESE 20 28 11 15 1015.9 1015.8 0.0
01/04:00pm 23.1 20.8 15.7 63 4.5 ESE 22 28 12 15 1016.0 1015.9 0.0
01/03:30pm 22.8 20.8 15.6 64 4.3 ESE 20 24 11 13 1016.0 1015.9 0.0
01/03:00pm 22.3 20.0 15.6 66 4.0 SE 22 26 12 14 1015.9 1015.8 0.0
01/02:30pm 22.1 19.9 15.9 68 3.7 SE 22 30 12 16 1015.8 1015.7 0.0
01/02:00pm 23.0 20.8 14.8 60 4.9 ESE 20 26 11 14 1016.2 1016.1 0.0
01/01:30pm 23.6 21.2 13.8 54 5.7 ESE 19 26 10 14 1016.8 1016.7 0.0
01/01:00pm 23.1 20.8 14.1 57 5.3 E 19 24 10 13 1017.1 1017.0 0.0
01/12:30pm 23.3 20.9 13.8 55 5.5 ENE 19 26 10 14 1017.7 1017.6 0.0
01/12:00pm 23.2 20.6 13.9 56 5.4 E 20 26 11 14 1017.9 1017.8 0.0
01/11:30am 22.7 20.2 14.0 58 5.1 ESE 20 26 11 14 1018.4 1018.3 0.0
01/11:00am 22.0 19.5 13.6 59 4.8 ESE 19 24 10 13 1018.8 1018.7 0.0
01/10:30am 21.5 18.0 13.4 60 4.7 ESE 24 28 13 15 1018.9 1018.8 0.0
01/10:00am 21.1 18.3 13.3 61 4.5 E 20 28 11 15 1019.1 1019.0 0.0
01/09:30am 20.6 18.6 13.8 65 3.9 E 17 24 9 13 1019.2 1019.1 0.0
01/09:00am 20.1 18.8 13.6 66 3.7 ESE 13 22 7 12 1019.0 1018.9 0.2
01/08:30am 20.0 15.9 13.7 67 3.6 SE 28 37 15 20 1018.2 1018.1 0.2
01/08:00am 19.8 17.2 13.7 68 3.5 ESE 20 26 11 14 1018.2 1018.1 0.2
01/07:30am 19.6 17.1 13.5 68 3.5 ESE 19 24 10 13 1018.0 1017.9 0.2
01/07:00am 19.8 17.2 13.7 68 3.5 SE 20 30 11 16 1018.0 1017.9 0.2
01/06:30am 19.5 17.2 14.1 71 3.1 ESE 19 28 10 15 1017.2 1017.1 0.2
01/06:00am 19.4 18.6 15.1 76 2.5 E 13 17 7 9 1017.1 1017.0 0.2
01/05:30am 19.6 17.9 14.8 74 2.8 E 17 20 9 11 1016.8 1016.7 0.2
01/05:00am 19.6 18.4 15.0 75 2.7 ESE 15 19 8 10 1016.5 1016.4 0.2
01/04:30am 19.7 18.8 14.9 74 2.8 ESE 13 19 7 10 1016.5 1016.4 0.2
01/04:00am 19.9 18.6 14.9 73 2.9 SE 15 22 8 12 1016.5 1016.4 0.2
01/03:30am 19.9 17.7 14.9 73 2.9 SE 20 26 11 14 1016.7 1016.6 0.2
01/03:00am 20.1 18.5 14.9 72 3.0 ESE 17 24 9 13 1016.9 1016.8 0.2
01/02:30am 20.3 19.2 15.3 73 3.0 ESE 15 20 8 11 1017.2 1017.1 0.2
01/02:00am 20.4 19.3 15.2 72 3.1 ESE 15 20 8 11 1017.6 1017.5 0.2
01/01:30am 20.5 19.1 15.5 73 3.0 ESE 17 20 9 11 1017.3 1017.2 0.2
01/01:00am 20.6 18.8 15.6 73 3.0 ESE 19 24 10 13 1017.5 1017.4 0.2
01/12:30am 20.5 19.1 16.5 78 2.4 ESE 19 24 10 13 1017.4 1017.3 0.2
01/12:00am 20.8 19.4 16.6 77 2.5 ESE 19 26 10 14 1017.5 1017.4 0.2
 
Date/Time
WST
Temp
°C
App
Temp
°C
Dew
Point
°C
Rel
Hum
%
Delta-T
°C
Wind Press
QNH
hPa
Press
MSL
hPa
Rain since
9am
mm
Dir  Spd
km/h
Gust
km/h
Spd
kts
Gust
kts
30/11:30pm 21.2 18.9 16.6 75 2.8 ESE 24 30 13 16 1017.6 1017.5 0.2
30/11:00pm 21.4 21.3 17.0 76 2.7 SE 13 20 7 11 1018.5 1018.4 0.2
30/10:30pm 21.4 21.5 17.4 78 2.5 SE 13 15 7 8 1019.1 1019.0 0.2
30/10:00pm 21.5 20.4 17.3 77 2.6 SSE 19 24 10 13 1018.8 1018.7 0.2
30/09:30pm 21.5 21.9 18.1 81 2.1 ESE 13 20 7 11 1018.7 1018.6 0.2
30/09:00pm 21.6 23.4 18.2 81 2.1 SE 6 15 3 8 1018.4 1018.3 0.2
30/08:30pm 21.8 20.6 18.4 81 2.1 ESE 22 30 12 16 1017.7 1017.6 0.2
30/08:00pm 22.1 23.3 18.3 79 2.4 SE 9 13 5 7 1018.2 1018.1 0.2
30/07:30pm 22.0 23.6 18.2 79 2.4 ENE 7 15 4 8 1018.0 1017.9 0.2
30/07:00pm 22.3 23.4 18.1 77 2.6 SE 9 11 5 6 1017.8 1017.7 0.2
30/06:30pm 22.5 23.1 17.8 75 2.9 ESE 11 13 6 7 1017.2 1017.1 0.2
30/06:00pm 23.1 23.7 17.6 71 3.4 SE 11 13 6 7 1016.8 1016.7 0.2
30/05:30pm 23.5 23.7 17.7 70 3.6 SE 13 15 7 8 1016.3 1016.2 0.2
30/05:00pm 23.9 23.3 17.6 68 3.9 ESE 17 22 9 12 1015.8 1015.7 0.2
30/04:30pm 24.5 24.6 17.5 65 4.4 SE 13 15 7 8 1015.7 1015.6 0.2
30/04:00pm 24.7 23.9 17.2 63 4.7 SE 17 22 9 12 1015.4 1015.3 0.2
30/03:30pm 24.7 24.2 17.9 66 4.3 SE 17 20 9 11 1015.4 1015.3 0.2
30/03:00pm 24.5 23.7 18.0 67 4.1 SE 19 22 10 12 1015.4 1015.3 0.2
30/02:30pm 24.9 24.8 18.8 69 3.9 ESE 17 22 9 12 1015.3 1015.2 0.2
30/02:00pm 24.5 25.1 18.7 70 3.7 ESE 13 20 7 11 1015.5 1015.4 0.2
30/01:30pm 23.7 23.9 18.6 73 3.2 SE 15 20 8 11 1015.7 1015.6 0.2
30/01:00pm 23.3 22.7 18.4 74 3.1 SE 19 24 10 13 1015.8 1015.7 0.2
30/12:30pm 23.1 22.8 18.2 74 3.1 ESE 17 22 9 12 1016.4 1016.3 0.2
30/12:00pm 22.2 20.8 18.0 77 2.6 SE 22 28 12 15 1016.9 1016.8 0.2
30/11:30am 21.1 19.1 17.3 79 2.3 ESE 24 30 13 16 1017.5 1017.4 0.2
30/11:00am 20.0 17.2 16.4 80 2.2 ESE 26 32 14 17 1017.9 1017.8 0.2
30/10:30am 19.1 17.0 16.1 83 1.8 ESE 22 30 12 16 1018.2 1018.1 0.2
30/10:00am 19.7 18.9 16.2 80 2.1 ESE 15 20 8 11 1018.5 1018.4 0.2
30/09:30am 19.5 19.0 16.9 85 1.6 SE 15 17 8 9 1018.5 1018.4 0.2
30/09:00am 20.2 19.4 16.0 77 2.5 E 15 17 8 9 1018.6 1018.5 0.0
30/08:30am 20.4 19.8 15.6 74 2.9 ESE 13 17 7 9 1018.4 1018.3 0.0
30/08:00am 20.8 18.5 14.7 68 3.6 E 20 26 11 14 1018.1 1018.0 0.0
30/07:30am 20.3 18.2 15.3 73 3.0 E 20 26 11 14 1017.6 1017.5 0.0
30/07:00am 20.3 19.1 16.1 77 2.5 E 17 20 9 11 1017.3 1017.2 0.0
30/06:30am 19.7 19.5 17.5 87 1.3 NNE 15 17 8 9 1016.9 1016.8 0.0
30/06:00am 19.7 21.6 17.7 88 1.2 NNW 4 9 2 5 1016.5 1016.4 0.0
30/05:30am 19.6 22.2 17.6 88 1.2 CALM 0 0 0 0 1016.1 1016.0 0.0
30/05:00am 19.4 22.0 17.4 88 1.2 CALM 0 0 0 0 1015.9 1015.8 0.0
30/04:30am 18.5 19.8 17.0 91 0.9 S 6 7 3 4 1015.8 1015.7 0.0
30/04:00am 18.2 18.4 16.7 91 0.9 S 11 11 6 6 1015.9 1015.8 0.0
30/03:30am 18.3 18.1 16.6 90 1.0 S 13 15 7 8 1016.0 1015.9 0.0
30/03:00am 18.5 19.1 16.8 90 1.0 SW 9 9 5 5 1016.4 1016.3 0.0
30/02:30am 18.3 18.5 16.8 91 0.9 SSW 11 15 6 8 1016.3 1016.2 0.0
30/02:00am 18.2 19.3 16.5 90 1.0 SW 6 6 3 3 1016.6 1016.5 0.0
30/01:30am 18.5 19.4 16.7 89 1.1 SSW 7 11 4 6 1017.0 1016.9 0.0
30/01:00am 18.4 18.9 16.6 89 1.1 S 9 13 5 7 1017.3 1017.2 0.0
30/12:30am 18.9 19.9 16.3 85 1.6 SW 6 7 3 4 1017.2 1017.1 0.0
30/12:00am 19.7 20.6 16.5 82 1.9 W 7 7 4 4 1017.5 1017.4 0.0
 
Date/Time
WST
Temp
°C
App
Temp
°C
Dew
Point
°C
Rel
Hum
%
Delta-T
°C
Wind Press
QNH
hPa
Press
MSL
hPa
Rain since
9am
mm
Dir  Spd
km/h
Gust
km/h
Spd
kts
Gust
kts
29/11:30pm 19.5 20.4 16.7 84 1.7 WNW 7 9 4 5 1017.6 1017.5 0.0
29/11:00pm 20.1 20.4 17.1 83 1.8 NW 11 11 6 6 1017.9 1017.8 0.0
29/10:30pm 20.5 21.2 17.1 81 2.1 WNW 9 11 5 6 1018.0 1017.9 0.0
29/10:00pm 20.6 21.1 16.6 78 2.4 WNW 9 11 5 6 1017.9 1017.8 0.0
29/09:30pm 21.2 21.5 17.0 77 2.6 WSW 11 15 6 8 1017.9 1017.8 0.0
29/09:00pm 20.1 20.5 16.3 79 2.3 SSW 9 9 5 5 1017.6 1017.5 0.0
29/08:30pm 20.7 21.1 16.3 76 2.6 SSW 9 11 5 6 1017.5 1017.4 0.0
29/08:00pm 21.2 21.8 15.7 71 3.3 WSW 7 9 4 5 1017.4 1017.3 0.0
29/07:30pm 21.8 23.3 15.6 68 3.7 SW 2 6 1 3 1017.0 1016.9 0.0
29/07:00pm 22.3 22.8 15.6 66 4.0 NW 7 9 4 5 1016.7 1016.6 0.0
29/06:30pm 23.0 22.8 15.8 64 4.3 NNW 11 13 6 7 1016.3 1016.2 0.0
29/06:00pm 23.9 23.7 15.7 60 4.9 NNW 11 13 6 7 1016.1 1016.0 0.0
29/05:30pm 26.1 25.6 14.9 50 6.7 NNW 11 15 6 8 1015.9 1015.8 0.0
29/05:00pm 28.0 26.3 13.5 41 8.6 N 15 17 8 9 1015.5 1015.4 0.0
29/04:30pm 28.8 26.8 12.7 37 9.5 N 15 17 8 9 1015.2 1015.1 0.0
29/04:00pm 29.4 27.4 12.8 36 9.8 N 15 19 8 10 1015.0 1014.9 0.0
29/03:30pm 29.9 28.4 13.2 36 9.9 NNE 13 17 7 9 1014.8 1014.7 0.0
29/03:00pm 30.3 29.6 13.1 34 10.2 NNE 9 17 5 9 1014.8 1014.7 0.0
29/02:30pm 29.9 29.0 13.6 36 9.8 NE 11 19 6 10 1014.9 1014.8 0.0
29/02:00pm 29.9 29.1 12.8 35 10.1 NNE 9 15 5 8 1015.0 1014.9 0.0
29/01:30pm 29.8 28.3 13.1 36 9.9 ENE 13 17 7 9 1015.1 1015.0 0.0
29/01:00pm 29.7 28.6 13.0 35 9.9 ENE 11 19 6 10 1015.4 1015.3 0.0
29/12:30pm 29.3 27.4 11.8 34 10.2 NE 13 19 7 10 1016.0 1015.9 0.0
29/12:00pm 29.1 27.7 12.1 35 9.9 E 11 19 6 10 1016.4 1016.3 0.0
29/11:30am 28.2 26.4 12.1 37 9.3 ESE 13 19 7 10 1016.8 1016.7 0.0
29/11:00am 27.4 25.0 11.4 37 9.1 ESE 15 19 8 10 1017.1 1017.0 0.0
29/10:30am 26.6 24.0 11.9 40 8.4 ESE 17 20 9 11 1017.2 1017.1 0.0
29/10:00am 25.5 22.0 10.9 40 8.2 ESE 20 24 11 13 1017.6 1017.5 0.0
29/09:30am 24.6 21.1 10.8 42 7.7 ESE 20 24 11 13 1017.7 1017.6 0.0
29/09:00am 23.3 20.8 12.3 50 6.2 ESE 17 22 9 12 1017.9 1017.8 0.0
29/08:30am 21.0 22.2 14.9 68 3.6 ESE 2 7 1 4 1017.7 1017.6 0.0
29/08:00am 19.0 20.8 15.5 80 2.1 CALM 0 0 0 0 1017.6 1017.5 0.0
29/07:30am 16.6 18.3 15.1 91 0.9 CALM 0 6 0 3 1017.3 1017.2 0.0
29/07:00am 15.6 16.9 14.1 91 0.8 CALM 0 0 0 0 1017.0 1016.9 0.0
29/06:30am 15.5 15.4 13.9 90 0.9 S 7 7 4 4 1016.8 1016.7 0.0
29/06:00am 15.2 15.2 13.6 90 0.9 SSW 6 7 3 4 1016.5 1016.4 0.0
29/05:30am 15.4 15.4 14.1 92 0.7 SSW 7 9 4 5 1016.4 1016.3 0.0
29/05:00am 15.4 15.9 14.1 92 0.7 SSW 4 9 2 5 1016.0 1015.9 0.0
29/04:30am 15.3 16.5 13.7 90 0.9 CALM 0 0 0 0 1016.1 1016.0 0.0
29/04:00am 15.9 17.3 14.3 90 0.9 CALM 0 0 0 0 1016.3 1016.2 0.0
29/03:30am 15.8 17.1 14.0 89 1.0 CALM 0 0 0 0 1016.2 1016.1 0.0
29/03:00am 16.4 16.0 14.2 87 1.3 SSW 9 11 5 6 1016.3 1016.2 0.0
29/02:30am 16.3 15.2 14.3 88 1.1 SW 13 13 7 7 1016.5 1016.4 0.0
29/02:00am 16.0 15.6 14.2 89 1.0 SSW 9 13 5 7 1016.7 1016.6 0.0
29/01:30am 16.5 17.6 14.5 88 1.1 SW 2 6 1 3 1017.0 1016.9 0.0
29/01:00am 16.7 16.9 14.3 86 1.4 SW 6 7 3 4 1017.0 1016.9 0.0
29/12:30am 16.9 16.5 14.2 84 1.5 SSW 9 9 5 5 1017.2 1017.1 0.0
29/12:00am 17.0 16.7 14.5 85 1.4 SSW 9 11 5 6 1017.2 1017.1 0.0
 
Date/Time
WST
Temp
°C
App
Temp
°C
Dew
Point
°C
Rel
Hum
%
Delta-T
°C
Wind Press
QNH
hPa
Press
MSL
hPa
Rain since
9am
mm
Dir  Spd
km/h
Gust
km/h
Spd
kts
Gust
kts
28/11:30pm 17.0 16.7 14.3 84 1.5 SSW 9 11 5 6 1017.3 1017.2 0.0
28/11:00pm 17.4 16.4 14.5 83 1.7 SSW 13 15 7 8 1017.1 1017.0 0.0
28/10:30pm 17.5 17.0 14.8 84 1.6 SSW 11 13 6 7 1017.1 1017.0 0.0
28/10:00pm 17.9 18.3 15.2 84 1.6 SSW 7 7 4 4 1017.2 1017.1 0.0
28/09:30pm 17.9 18.1 14.8 82 1.8 SSW 7 9 4 5 1017.2 1017.1 0.0
28/09:00pm 18.2 18.7 14.9 81 1.9 SSW 6 7 3 4 1017.1 1017.0 0.0
28/08:30pm 18.5 20.0 14.6 78 2.3 CALM 0 0 0 0 1016.9 1016.8 0.0
28/08:00pm 19.0 19.5 14.9 77 2.4 W 6 7 3 4 1016.7 1016.6 0.0

Other Formats:

Comma delimited format used in spreadsheet applications
http://www.bom.gov.au/fwo/IDW60801/IDW60801.94308.axf

JavaScript Object Notation format (JSON) in row-major order
http://www.bom.gov.au/fwo/IDW60801/IDW60801.94308.json